Terminal Aerodrome Forecast
Issued by NWS Buffalo, NY

Home | Current Version | Previous Version | Text Only | Print | Product List | Glossary On
Versions: 1 2 3 4 5 6 7 8 9 10 11 12 13 14 15 16 17 18 19 20 21 22 23 24 25
000
FTUS41 KBUF 281100
TAFROC
TAF
KROC 281127Z 2812/2912 04014G20KT 3SM +RA VCTS OVC007CB
     FM281300 03017G24KT 3SM +RA OVC007
     FM281500 35013G20KT 3SM +RA OVC007
     FM282000 32014KT P6SM VCSH OVC025
     FM282200 31011KT P6SM OVC040
     FM291000 28007KT P6SM SCT040=

USA.gov is the U.S. government's official web portal to all federal, state and local government web resources and services.